createdAt,value
2023-05-16T00:02:03.163Z,11.70
2023-05-16T00:04:33.162Z,11.70
2023-05-16T00:07:01.376Z,11.70
2023-05-16T00:09:29.468Z,11.70
2023-05-16T00:11:57.996Z,11.70
2023-05-16T00:14:26.809Z,11.70
2023-05-16T00:16:57.687Z,11.60
2023-05-16T00:19:28.044Z,11.60
2023-05-16T00:21:56.120Z,11.60
2023-05-16T00:24:24.207Z,11.50
2023-05-16T00:26:52.340Z,11.50
2023-05-16T00:29:20.442Z,11.40
2023-05-16T00:31:48.559Z,11.30
2023-05-16T00:34:16.825Z,11.30
2023-05-16T00:36:46.507Z,11.50
2023-05-16T00:39:14.582Z,11.30
2023-05-16T00:41:42.856Z,11.20
2023-05-16T00:44:11.185Z,11.20
2023-05-16T00:46:39.376Z,11.10
2023-05-16T00:49:07.459Z,11.10
2023-05-16T00:51:36.000Z,11.10
2023-05-16T00:54:06.216Z,11.10
2023-05-16T00:56:35.079Z,11.10
2023-05-16T00:59:03.894Z,11.10
2023-05-16T01:01:33.038Z,11.40
2023-05-16T01:04:01.797Z,11.10
2023-05-16T01:06:30.198Z,11.20
2023-05-16T01:08:58.491Z,11.10
2023-05-16T01:11:36.458Z,11.50
2023-05-16T01:14:12.514Z,11.10
2023-05-16T01:16:47.411Z,11.10
2023-05-16T01:19:23.957Z,11.10
2023-05-16T01:22:05.542Z,11.10
2023-05-16T01:24:35.968Z,11.10
2023-05-16T01:27:08.797Z,11.00
2023-05-16T01:29:36.976Z,11.00
2023-05-16T01:32:05.406Z,11.00
2023-05-16T01:34:34.841Z,11.10
2023-05-16T01:37:14.200Z,11.10
2023-05-16T01:39:48.370Z,11.00
2023-05-16T01:42:19.662Z,11.00
2023-05-16T01:44:51.934Z,11.60
2023-05-16T01:47:25.475Z,11.00
2023-05-16T01:50:04.433Z,11.00
2023-05-16T01:52:36.296Z,11.00
2023-05-16T01:55:05.171Z,11.00
2023-05-16T01:57:35.608Z,11.00
2023-05-16T02:00:04.084Z,10.90
2023-05-16T02:02:32.776Z,10.90
2023-05-16T02:05:00.830Z,10.90
2023-05-16T02:07:29.063Z,11.00
2023-05-16T02:09:57.197Z,11.20
2023-05-16T02:12:26.214Z,10.90
2023-05-16T02:14:55.587Z,10.90
2023-05-16T02:17:23.679Z,10.90
2023-05-16T02:19:52.323Z,10.90
2023-05-16T02:22:20.479Z,10.90
2023-05-16T02:24:48.561Z,11.30
2023-05-16T02:27:16.635Z,11.40
2023-05-16T02:29:44.686Z,12.10
2023-05-16T02:32:14.108Z,11.30
2023-05-16T02:34:42.935Z,10.90
2023-05-16T02:37:13.312Z,11.60
2023-05-16T02:39:41.576Z,10.90
2023-05-16T02:42:10.334Z,10.90
2023-05-16T02:44:38.382Z,11.00
2023-05-16T02:47:06.491Z,11.60
2023-05-16T02:49:35.941Z,10.80
2023-05-16T02:52:04.178Z,11.50
2023-05-16T02:54:32.363Z,10.80
2023-05-16T02:57:00.420Z,10.70
2023-05-16T02:59:28.447Z,10.70
2023-05-16T03:01:56.533Z,10.70
2023-05-16T03:04:24.750Z,10.50
2023-05-16T03:06:54.191Z,10.40
2023-05-16T03:09:22.240Z,10.30
2023-05-16T03:11:50.264Z,10.20
2023-05-16T03:14:18.369Z,10.10
2023-05-16T03:16:46.854Z,10.10
2023-05-16T03:19:15.139Z,10.30
2023-05-16T03:21:43.230Z,9.90
2023-05-16T03:24:12.703Z,9.90
2023-05-16T03:26:40.900Z,10.70
2023-05-16T03:29:08.965Z,9.90
2023-05-16T03:31:37.091Z,10.70
2023-05-16T03:34:05.169Z,9.80
2023-05-16T03:36:33.250Z,10.10
2023-05-16T03:39:01.386Z,10.20
2023-05-16T03:41:30.802Z,9.80
2023-05-16T03:43:58.817Z,10.60
2023-05-16T03:46:27.028Z,10.10
2023-05-16T03:48:55.044Z,9.70
2023-05-16T03:51:23.354Z,9.70
2023-05-16T03:53:51.408Z,9.70
2023-05-16T03:56:19.453Z,9.70
2023-05-16T03:58:48.981Z,9.60
2023-05-16T04:01:17.012Z,9.60
2023-05-16T04:03:45.016Z,9.60
2023-05-16T04:06:13.355Z,9.70
2023-05-16T04:08:43.608Z,9.60
2023-05-16T04:11:11.768Z,9.60
2023-05-16T04:13:39.937Z,9.70
2023-05-16T04:16:09.642Z,9.60
2023-05-16T04:18:38.031Z,9.60
2023-05-16T04:21:06.602Z,9.60
2023-05-16T04:23:34.655Z,9.60
2023-05-16T04:26:04.730Z,9.50
2023-05-16T04:28:32.965Z,9.60
2023-05-16T04:31:01.168Z,9.50
2023-05-16T04:33:30.737Z,10.30
2023-05-16T04:35:59.346Z,9.50
2023-05-16T04:38:27.641Z,9.60
2023-05-16T04:40:55.651Z,9.90
2023-05-16T04:43:23.719Z,9.60
2023-05-16T04:45:53.990Z,9.60
2023-05-16T04:48:22.149Z,10.00
2023-05-16T04:50:52.473Z,10.50
2023-05-16T04:53:20.478Z,9.70
2023-05-16T04:55:48.677Z,9.70
2023-05-16T04:58:16.732Z,9.80
2023-05-16T05:00:44.849Z,10.40
2023-05-16T05:03:13.054Z,11.20
2023-05-16T05:05:41.152Z,9.80
2023-05-16T05:08:10.829Z,9.90
2023-05-16T05:10:38.798Z,10.00
2023-05-16T05:13:06.923Z,10.20
2023-05-16T05:15:34.966Z,9.90
2023-05-16T05:18:03.033Z,11.30
2023-05-16T05:20:31.109Z,10.90
2023-05-16T05:22:59.160Z,9.90
2023-05-16T05:25:29.146Z,9.90
2023-05-16T05:27:57.355Z,9.90
2023-05-16T05:30:25.566Z,10.30
2023-05-16T05:32:54.802Z,9.90
2023-05-16T05:35:23.126Z,9.90
2023-05-16T05:37:51.119Z,10.00
2023-05-16T05:40:19.306Z,10.10
2023-05-16T05:42:48.730Z,10.10
2023-05-16T05:45:16.956Z,10.10
2023-05-16T05:47:45.454Z,10.20
2023-05-16T05:50:14.712Z,10.30
2023-05-16T05:52:42.844Z,10.50
2023-05-16T05:55:11.315Z,10.50
2023-05-16T05:57:39.333Z,10.50
2023-05-16T06:00:10.470Z,10.60
2023-05-16T06:02:38.915Z,10.60
2023-05-16T06:05:08.183Z,10.50
2023-05-16T06:07:36.281Z,10.50
2023-05-16T06:10:05.557Z,10.40
2023-05-16T06:12:33.633Z,10.40
2023-05-16T06:15:01.644Z,10.40
2023-05-16T06:17:31.017Z,10.50
2023-05-16T06:19:59.278Z,10.50
2023-05-16T06:22:27.410Z,10.50
2023-05-16T06:24:55.490Z,10.60
2023-05-16T06:27:23.664Z,10.70
2023-05-16T06:29:51.800Z,10.70
2023-05-16T06:32:19.822Z,10.70
2023-05-16T06:34:50.172Z,10.70
2023-05-16T06:37:18.412Z,10.80
2023-05-16T06:39:46.530Z,10.90
2023-05-16T06:42:15.194Z,11.00
2023-05-16T06:44:43.327Z,11.00
2023-05-16T06:47:12.578Z,10.90
2023-05-16T06:49:40.917Z,11.00
2023-05-16T06:52:11.599Z,11.00
2023-05-16T06:54:40.129Z,11.00
2023-05-16T06:57:09.404Z,11.00
2023-05-16T06:59:37.579Z,11.00
2023-05-16T07:02:06.202Z,10.90
2023-05-16T07:04:34.654Z,11.00
2023-05-16T07:07:03.262Z,11.10
2023-05-16T07:09:32.759Z,11.30
2023-05-16T07:12:00.945Z,11.50
2023-05-16T07:14:29.316Z,11.90
2023-05-16T07:16:57.476Z,12.10
2023-05-16T07:19:25.840Z,12.30
2023-05-16T07:21:54.746Z,12.40
2023-05-16T07:24:22.806Z,12.30
2023-05-16T07:26:52.264Z,12.20
2023-05-16T07:29:20.638Z,12.10
2023-05-16T07:31:48.867Z,11.80
2023-05-16T07:34:17.219Z,11.90
2023-05-16T07:36:45.519Z,11.80
2023-05-16T07:39:13.656Z,11.80
2023-05-16T07:41:41.760Z,11.80
2023-05-16T07:44:11.317Z,11.80
2023-05-16T07:46:39.619Z,11.80
2023-05-16T07:49:07.915Z,12.00
2023-05-16T07:51:36.425Z,12.00
2023-05-16T07:54:04.701Z,12.10
2023-05-16T07:56:33.061Z,12.40
2023-05-16T07:59:01.426Z,12.60
2023-05-16T08:01:31.020Z,12.70
2023-05-16T08:03:59.296Z,12.80
2023-05-16T08:06:27.545Z,12.90
2023-05-16T08:08:56.121Z,12.80
2023-05-16T08:11:24.416Z,12.60
2023-05-16T08:13:52.663Z,12.50
2023-05-16T08:16:20.877Z,12.50
2023-05-16T08:18:50.401Z,12.40
2023-05-16T08:21:18.640Z,12.40
2023-05-16T08:23:46.720Z,12.80
2023-05-16T08:26:14.906Z,13.50
2023-05-16T08:28:43.317Z,14.50
2023-05-16T08:31:11.755Z,15.90
2023-05-16T08:33:39.918Z,17.50
2023-05-16T08:36:11.151Z,18.20
2023-05-16T08:38:39.322Z,18.30
2023-05-16T08:41:07.654Z,18.00
2023-05-16T08:43:36.761Z,17.60
2023-05-16T08:46:05.139Z,18.20
2023-05-16T08:48:35.386Z,18.70
2023-05-16T08:51:07.342Z,19.60
2023-05-16T08:53:43.550Z,20.60
2023-05-16T08:56:14.062Z,21.20
2023-05-16T08:58:42.432Z,20.20
2023-05-16T09:01:11.265Z,20.20
2023-05-16T09:03:39.783Z,19.70
2023-05-16T09:06:08.419Z,19.30
2023-05-16T09:08:38.046Z,19.90
2023-05-16T09:11:06.585Z,21.10
2023-05-16T09:13:34.742Z,20.60
2023-05-16T09:16:16.118Z,19.90
2023-05-16T09:18:46.259Z,19.10
2023-05-16T09:21:15.860Z,18.00
2023-05-16T09:23:46.543Z,17.70
2023-05-16T09:26:14.923Z,17.10
2023-05-16T09:28:44.368Z,16.50
2023-05-16T09:31:23.223Z,16.00
2023-05-16T09:33:51.364Z,17.00
2023-05-16T09:36:19.754Z,18.70
2023-05-16T09:38:52.961Z,20.60
2023-05-16T09:41:23.315Z,22.50
2023-05-16T09:43:51.695Z,23.30
2023-05-16T09:46:20.562Z,24.20
2023-05-16T09:48:49.319Z,24.90
2023-05-16T09:51:17.654Z,25.30
2023-05-16T09:53:45.871Z,25.80
2023-05-16T09:56:17.125Z,26.70
2023-05-16T09:58:47.410Z,26.10
2023-05-16T10:01:15.711Z,24.00
2023-05-16T10:03:45.205Z,22.10
2023-05-16T10:06:14.509Z,20.60
2023-05-16T10:08:44.696Z,18.90
2023-05-16T10:11:15.299Z,17.70
2023-05-16T10:13:44.918Z,18.10
2023-05-16T10:16:15.207Z,19.50
2023-05-16T10:18:44.460Z,21.50
2023-05-16T10:21:17.196Z,23.40
2023-05-16T10:23:49.574Z,24.40
2023-05-16T10:26:19.731Z,24.80
2023-05-16T10:28:49.712Z,25.70
2023-05-16T10:31:18.597Z,25.70
2023-05-16T10:33:48.105Z,26.30
2023-05-16T10:36:19.228Z,27.20
2023-05-16T10:38:48.886Z,28.10
2023-05-16T10:41:20.830Z,28.20
2023-05-16T10:43:58.146Z,28.40
2023-05-16T10:46:29.132Z,27.70
2023-05-16T10:48:58.716Z,27.20
2023-05-16T10:51:37.625Z,27.00
2023-05-16T10:54:12.628Z,26.90
2023-05-16T10:56:43.302Z,27.00
2023-05-16T10:59:26.108Z,27.80
2023-05-16T11:01:55.200Z,28.60
2023-05-16T11:04:23.448Z,29.30
2023-05-16T11:06:53.992Z,30.10
2023-05-16T11:09:28.567Z,29.10
2023-05-16T11:12:04.650Z,27.00
2023-05-16T11:14:42.266Z,25.10
2023-05-16T11:17:13.309Z,23.20
2023-05-16T11:19:44.453Z,21.80
2023-05-16T11:22:24.060Z,21.50
2023-05-16T11:24:57.741Z,23.20
2023-05-16T11:27:30.914Z,25.40
2023-05-16T11:30:03.574Z,26.40
2023-05-16T11:32:33.126Z,25.20
2023-05-16T11:35:01.402Z,23.80
2023-05-16T11:37:29.701Z,22.30
2023-05-16T11:40:01.554Z,21.20
2023-05-16T11:42:34.137Z,21.50
2023-05-16T11:45:07.348Z,22.40
2023-05-16T11:47:37.544Z,23.90
2023-05-16T11:50:07.859Z,25.60
2023-05-16T11:52:38.383Z,27.20
2023-05-16T11:55:08.180Z,28.30
2023-05-16T11:57:38.067Z,28.00
2023-05-16T12:00:15.156Z,26.80
2023-05-16T12:02:43.866Z,25.20
2023-05-16T12:05:13.248Z,23.80
2023-05-16T12:07:42.022Z,23.70
2023-05-16T12:10:11.798Z,23.90
2023-05-16T12:12:44.836Z,24.40
2023-05-16T12:15:15.092Z,24.00
2023-05-16T12:17:43.946Z,23.60
2023-05-16T12:20:14.730Z,22.70
2023-05-16T12:22:44.267Z,21.70
2023-05-16T12:25:27.736Z,20.80
2023-05-16T12:28:00.682Z,19.80
2023-05-16T12:30:31.311Z,18.80
2023-05-16T12:33:02.365Z,18.10
2023-05-16T12:35:35.405Z,18.70
2023-05-16T12:38:07.932Z,20.10
2023-05-16T12:40:39.781Z,21.80
2023-05-16T12:43:16.731Z,22.20
2023-05-16T12:45:53.147Z,21.60
2023-05-16T12:48:22.685Z,20.90
2023-05-16T12:50:51.382Z,20.10
2023-05-16T12:53:20.627Z,18.90
2023-05-16T12:55:49.660Z,18.00
2023-05-16T12:58:19.971Z,17.30
2023-05-16T13:00:49.809Z,16.70
2023-05-16T13:03:19.423Z,16.20
2023-05-16T13:05:47.785Z,15.70
2023-05-16T13:08:16.222Z,15.40
2023-05-16T13:10:44.761Z,15.20
2023-05-16T13:13:25.139Z,15.40
2023-05-16T13:16:05.140Z,16.20
2023-05-16T13:18:34.622Z,18.10
2023-05-16T13:21:04.018Z,18.60
2023-05-16T13:23:33.104Z,18.50
2023-05-16T13:26:01.567Z,18.10
2023-05-16T13:28:30.587Z,17.60
2023-05-16T13:31:00.678Z,16.90
2023-05-16T13:33:31.687Z,16.40
2023-05-16T13:36:00.316Z,16.00
2023-05-16T13:38:28.930Z,15.60
2023-05-16T13:40:57.465Z,15.40
2023-05-16T13:43:27.348Z,15.20
2023-05-16T13:45:57.177Z,15.30
2023-05-16T13:48:26.646Z,15.30
2023-05-16T13:50:56.886Z,15.40
2023-05-16T13:53:25.832Z,15.50
2023-05-16T13:55:57.633Z,15.50
2023-05-16T13:58:25.928Z,15.60
2023-05-16T14:00:54.534Z,15.90
2023-05-16T14:03:23.411Z,16.20
2023-05-16T14:05:51.858Z,17.10
2023-05-16T14:08:21.926Z,17.40
2023-05-16T14:10:50.572Z,17.40
2023-05-16T14:13:18.818Z,17.20
2023-05-16T14:15:47.362Z,17.10
2023-05-16T14:18:16.319Z,16.80
2023-05-16T14:20:44.844Z,16.60
2023-05-16T14:23:13.080Z,16.50
2023-05-16T14:25:42.874Z,16.40
2023-05-16T14:28:11.480Z,16.50
2023-05-16T14:30:43.110Z,16.60
2023-05-16T14:33:11.594Z,17.30
2023-05-16T14:35:41.166Z,17.40
2023-05-16T14:38:10.178Z,17.50
2023-05-16T14:40:38.919Z,17.40
2023-05-16T14:43:08.963Z,17.20
2023-05-16T14:45:38.194Z,17.00
2023-05-16T14:48:08.544Z,16.80
2023-05-16T14:50:36.966Z,16.70
2023-05-16T14:53:05.290Z,16.80
2023-05-16T14:55:33.524Z,17.00
2023-05-16T14:58:01.728Z,17.50
2023-05-16T15:00:32.150Z,17.90
2023-05-16T15:03:00.566Z,18.50
2023-05-16T15:05:31.215Z,18.90
2023-05-16T15:08:07.960Z,19.20
2023-05-16T15:10:36.849Z,19.20
2023-05-16T15:13:05.181Z,18.90
2023-05-16T15:15:34.719Z,18.20
2023-05-16T15:18:03.010Z,17.70
2023-05-16T15:20:31.285Z,17.10
2023-05-16T15:22:59.583Z,16.50
2023-05-16T15:25:28.117Z,16.20
2023-05-16T15:27:56.892Z,16.40
2023-05-16T15:30:25.771Z,16.90
2023-05-16T15:32:58.596Z,17.40
2023-05-16T15:35:27.569Z,17.90
2023-05-16T15:37:56.811Z,17.90
2023-05-16T15:40:27.078Z,18.00
2023-05-16T15:42:55.940Z,18.10
2023-05-16T15:45:24.252Z,18.40
2023-05-16T15:47:52.406Z,18.30
2023-05-16T15:50:22.461Z,18.20
2023-05-16T15:52:51.168Z,17.80
2023-05-16T15:55:20.226Z,17.50
2023-05-16T15:57:48.422Z,17.00
2023-05-16T16:00:17.758Z,16.70
2023-05-16T16:02:46.272Z,16.20
2023-05-16T16:05:14.849Z,15.90
2023-05-16T16:07:44.527Z,15.50
2023-05-16T16:10:13.555Z,15.20
2023-05-16T16:12:41.882Z,15.10
2023-05-16T16:15:12.150Z,14.90
2023-05-16T16:17:40.419Z,14.90
2023-05-16T16:20:09.398Z,14.90
2023-05-16T16:22:37.813Z,15.00
2023-05-16T16:25:09.814Z,15.20
2023-05-16T16:27:38.136Z,15.40
2023-05-16T16:30:07.394Z,15.70
2023-05-16T16:32:35.603Z,15.80
2023-05-16T16:35:05.484Z,15.90
2023-05-16T16:37:34.042Z,15.60
2023-05-16T16:40:02.327Z,15.60
2023-05-16T16:42:32.072Z,15.60
2023-05-16T16:45:00.664Z,15.70
2023-05-16T16:47:28.976Z,15.60
2023-05-16T16:49:57.411Z,15.50
2023-05-16T16:52:25.681Z,15.50
2023-05-16T16:54:54.071Z,15.20
2023-05-16T16:57:22.525Z,15.10
2023-05-16T16:59:52.209Z,15.00
2023-05-16T17:02:20.590Z,14.80
2023-05-16T17:04:48.906Z,14.80
2023-05-16T17:07:17.381Z,14.60
2023-05-16T17:09:45.826Z,14.50
2023-05-16T17:12:19.044Z,14.40
2023-05-16T17:14:49.446Z,14.40
2023-05-16T17:17:20.353Z,14.30
2023-05-16T17:19:49.257Z,14.20
2023-05-16T17:22:17.770Z,14.10
2023-05-16T17:24:46.537Z,14.10
2023-05-16T17:27:15.451Z,14.20
2023-05-16T17:29:43.968Z,14.20
2023-05-16T17:32:12.430Z,14.10
2023-05-16T17:34:42.541Z,14.00
2023-05-16T17:37:11.336Z,14.00
2023-05-16T17:39:40.253Z,13.90
2023-05-16T17:42:09.465Z,13.90
2023-05-16T17:44:37.765Z,13.80
2023-05-16T17:47:06.455Z,13.70
2023-05-16T17:49:35.017Z,13.60
2023-05-16T17:52:04.864Z,13.60
2023-05-16T17:54:32.996Z,13.50
2023-05-16T17:57:01.568Z,13.40
2023-05-16T17:59:30.086Z,13.40
2023-05-16T18:01:58.729Z,13.30
2023-05-16T18:04:27.632Z,13.30
2023-05-16T18:06:56.371Z,13.30
2023-05-16T18:09:26.489Z,13.20
2023-05-16T18:11:55.102Z,13.20
2023-05-16T18:14:23.728Z,13.10
2023-05-16T18:16:51.962Z,13.10
2023-05-16T18:19:20.706Z,13.10
2023-05-16T18:21:49.210Z,13.10
2023-05-16T18:24:17.417Z,13.00
2023-05-16T18:26:48.498Z,12.90
2023-05-16T18:29:16.723Z,12.90
2023-05-16T18:31:45.409Z,12.80
2023-05-16T18:34:13.697Z,12.80
2023-05-16T18:36:41.959Z,12.70
2023-05-16T18:39:10.682Z,12.70
2023-05-16T18:41:38.825Z,12.60
2023-05-16T18:44:08.436Z,12.60
2023-05-16T18:46:36.766Z,12.60
2023-05-16T18:49:05.000Z,12.50
2023-05-16T18:51:33.367Z,12.50
2023-05-16T18:54:01.736Z,12.50
2023-05-16T18:56:29.946Z,12.40
2023-05-16T18:58:58.211Z,12.30
2023-05-16T19:01:28.078Z,12.30
2023-05-16T19:03:56.770Z,12.30
2023-05-16T19:06:25.128Z,12.30
2023-05-16T19:08:53.305Z,12.20
2023-05-16T19:11:22.449Z,12.20
2023-05-16T19:13:50.686Z,12.20
2023-05-16T19:16:19.227Z,12.10
2023-05-16T19:18:49.274Z,12.10
2023-05-16T19:21:17.579Z,12.10
2023-05-16T19:23:46.187Z,12.00
2023-05-16T19:26:14.373Z,12.00
2023-05-16T19:28:42.716Z,12.00
2023-05-16T19:31:11.665Z,11.90
2023-05-16T19:33:40.062Z,11.90
2023-05-16T19:36:10.397Z,11.90
2023-05-16T19:38:38.848Z,11.90
2023-05-16T19:41:07.492Z,11.80
2023-05-16T19:43:35.805Z,11.80
2023-05-16T19:46:04.267Z,11.80
2023-05-16T19:48:33.806Z,11.80
2023-05-16T19:51:02.386Z,11.70
2023-05-16T19:53:32.482Z,11.70
2023-05-16T19:56:01.083Z,11.70
2023-05-16T19:58:29.727Z,11.60
2023-05-16T20:00:58.837Z,11.60
2023-05-16T20:03:27.760Z,11.60
2023-05-16T20:05:56.696Z,11.60
2023-05-16T20:08:25.606Z,11.50
2023-05-16T20:10:57.963Z,11.50
2023-05-16T20:13:26.996Z,11.50
2023-05-16T20:15:55.624Z,11.40
2023-05-16T20:18:24.281Z,11.40
2023-05-16T20:20:52.580Z,11.40
2023-05-16T20:23:21.548Z,11.30
2023-05-16T20:25:50.078Z,11.30
2023-05-16T20:28:19.840Z,11.30
2023-05-16T20:30:48.392Z,11.30
2023-05-16T20:33:16.945Z,11.20
2023-05-16T20:35:45.391Z,11.20
2023-05-16T20:38:13.668Z,11.20
2023-05-16T20:40:42.444Z,11.10
2023-05-16T20:43:11.667Z,11.10
2023-05-16T20:45:41.218Z,11.00
2023-05-16T20:48:09.695Z,11.00
2023-05-16T20:50:38.958Z,10.90
2023-05-16T20:53:08.178Z,10.90
2023-05-16T20:55:36.333Z,10.80
2023-05-16T20:58:04.450Z,10.80
2023-05-16T21:00:33.696Z,10.80
2023-05-16T21:03:03.322Z,10.70
2023-05-16T21:05:33.533Z,10.70
2023-05-16T21:08:01.611Z,10.70
2023-05-16T21:10:29.830Z,10.70
2023-05-16T21:12:58.011Z,10.70
2023-05-16T21:15:26.223Z,10.70
2023-05-16T21:17:55.168Z,10.60
2023-05-16T21:20:24.871Z,10.60
2023-05-16T21:22:53.299Z,10.60
2023-05-16T21:25:21.651Z,10.50
2023-05-16T21:27:49.745Z,10.50
2023-05-16T21:30:18.086Z,10.50
2023-05-16T21:32:46.311Z,10.40
2023-05-16T21:35:14.458Z,10.40
2023-05-16T21:37:44.383Z,10.50
2023-05-16T21:40:18.935Z,10.30
2023-05-16T21:42:47.476Z,10.30
2023-05-16T21:45:16.691Z,10.20
2023-05-16T21:47:45.439Z,10.20
2023-05-16T21:50:14.114Z,10.20
2023-05-16T21:52:43.876Z,10.10
2023-05-16T21:55:11.957Z,10.10
2023-05-16T21:57:40.068Z,10.10
2023-05-16T22:00:09.978Z,9.90
2023-05-16T22:02:38.778Z,9.90
2023-05-16T22:05:08.591Z,10.00
2023-05-16T22:07:37.325Z,9.80
2023-05-16T22:10:08.232Z,9.70
2023-05-16T22:12:36.297Z,9.70
2023-05-16T22:15:04.952Z,9.70
2023-05-16T22:17:33.265Z,9.60
2023-05-16T22:20:02.166Z,9.50
2023-05-16T22:22:30.332Z,9.40
2023-05-16T22:24:58.513Z,9.30
2023-05-16T22:27:28.035Z,9.20
2023-05-16T22:29:56.305Z,8.90
2023-05-16T22:32:24.813Z,8.90
2023-05-16T22:34:54.033Z,8.80
2023-05-16T22:37:22.127Z,8.70
2023-05-16T22:39:50.184Z,8.70
2023-05-16T22:42:18.328Z,8.60
2023-05-16T22:44:47.821Z,8.50
2023-05-16T22:47:15.980Z,8.40
2023-05-16T22:49:44.160Z,8.30
2023-05-16T22:52:12.563Z,8.30
2023-05-16T22:54:41.679Z,8.20
2023-05-16T22:57:09.930Z,8.20
2023-05-16T22:59:38.068Z,8.10
2023-05-16T23:02:07.735Z,8.00
2023-05-16T23:04:35.871Z,8.00
2023-05-16T23:07:04.024Z,8.00
2023-05-16T23:09:32.211Z,7.90
2023-05-16T23:12:00.369Z,8.10
2023-05-16T23:14:28.431Z,7.80
2023-05-16T23:16:56.510Z,7.70
2023-05-16T23:19:26.235Z,7.70
2023-05-16T23:21:54.540Z,7.70
2023-05-16T23:24:22.823Z,7.60
2023-05-16T23:26:50.910Z,7.60
2023-05-16T23:29:19.000Z,7.40
2023-05-16T23:31:47.675Z,7.50
2023-05-16T23:34:15.813Z,7.50
2023-05-16T23:36:45.503Z,7.50
2023-05-16T23:39:13.652Z,7.50
2023-05-16T23:41:41.751Z,7.70
2023-05-16T23:44:09.942Z,7.40
2023-05-16T23:46:38.070Z,7.50
2023-05-16T23:49:06.451Z,7.20
2023-05-16T23:51:52.279Z,7.40
2023-05-16T23:54:23.986Z,7.30
2023-05-16T23:56:52.118Z,7.30
2023-05-16T23:59:20.452Z,7.30
